Time;durP1;ratioP1;P1;durP2;ratioP2;P2;SDS_P1;SDS_P2;PMS_P1;PMS_P2;Temp;Humidity;BMP_temperature;BMP_pressure;BME280_temperature;BME280_humidity;BME280_pressure;Samples;Min_cycle;Max_cycle;Signal;HPM_P1;HPM_P2
2023/02/15 00:01:29;;;;;;;70.35;35.05;;;102.80;2227.20;;;;;;5065510;28;20029;-77
2023/02/15 00:03:56;;;;;;;67.07;33.25;;;102.90;2227.20;;;;;;5045949;28;20024;-77
2023/02/15 00:06:21;;;;;;;;;;;103.00;2227.20;;;;;;5049747;28;20075;-76
2023/02/15 00:08:47;;;;;;;67.10;31.42;;;102.90;2227.20;;;;;;5067785;28;19913;-77
2023/02/15 00:11:14;;;;;;;;;;;102.90;2227.20;;;;;;5048914;28;20366;-77
2023/02/15 00:13:43;;;;;;;54.28;26.13;;;102.80;2227.20;;;;;;5063950;28;19911;-76
2023/02/15 00:16:12;;;;;;;70.47;35.53;;;102.80;2227.20;;;;;;5049442;28;20032;-77
2023/02/15 00:18:39;;;;;;;64.97;33.70;;;102.80;2227.20;;;;;;5064549;28;20033;-77
2023/02/15 00:21:09;;;;;;;69.20;33.60;;;102.70;2227.20;;;;;;5067462;28;20033;-77
2023/02/15 00:23:35;;;;;;;73.03;34.70;;;102.70;2227.20;;;;;;5066756;28;20025;-78
2023/02/15 00:26:07;;;;;;;;;;;102.50;2227.20;;;;;;5057668;28;20032;-77
2023/02/15 00:28:32;;;;;;;70.28;33.08;;;102.50;2227.20;;;;;;5065433;28;19918;-78
2023/02/15 00:31:08;;;;;;;;;;;102.40;2227.20;;;;;;5046462;28;20048;-78
2023/02/15 00:33:34;;;;;;;66.55;32.33;;;102.50;2227.20;;;;;;5041833;28;20073;-77
2023/02/15 00:36:00;;;;;;;;;;;102.40;2227.20;;;;;;5045328;28;20060;-76
2023/02/15 00:38:29;;;;;;;68.85;31.25;;;77.70;2227.20;;;;;;5044663;28;20297;-76
2023/02/15 00:40:57;;;;;;;63.58;31.20;;;77.70;2227.20;;;;;;5043951;28;20040;-77
2023/02/15 00:43:23;;;;;;;68.18;32.78;;;77.70;2227.20;;;;;;5043230;28;20491;-77
2023/02/15 00:45:48;;;;;;;;;;;77.70;2227.20;;;;;;5044594;28;20053;-78
2023/02/15 00:48:14;;;;;;;61.55;30.55;;;77.70;2227.20;;;;;;5056066;28;20015;-77
2023/02/15 00:50:40;;;;;;;68.22;33.60;;;77.70;2227.20;;;;;;5045780;28;20016;-78
2023/02/15 00:53:06;;;;;;;;;;;102.40;2227.20;;;;;;5045627;28;20087;-77
2023/02/15 00:55:31;;;;;;;68.47;34.05;;;77.70;2227.20;;;;;;5062623;28;19904;-77
2023/02/15 00:57:57;;;;;;;;;;;77.70;2227.20;;;;;;5049788;28;20043;-77
2023/02/15 01:00:23;;;;;;;61.30;31.33;;;102.50;2227.20;;;;;;5049742;28;19939;-77
2023/02/15 01:02:48;;;;;;;;;;;102.50;2227.20;;;;;;5047404;28;20035;-79
2023/02/15 01:05:14;;;;;;;58.42;30.00;;;102.50;2227.20;;;;;;5064856;28;19947;-78
2023/02/15 01:07:40;;;;;;;;;;;102.50;2227.20;;;;;;5044847;28;20050;-77
2023/02/15 01:10:07;;;;;;;59.85;31.15;;;102.50;2227.20;;;;;;5048928;28;20001;-78
2023/02/15 01:12:33;;;;;;;65.75;32.17;;;102.60;2227.20;;;;;;5065561;28;20029;-78
2023/02/15 01:14:59;;;;;;;60.20;31.83;;;102.60;2227.20;;;;;;5061909;28;20037;-76
2023/02/15 01:17:24;;;;;;;;;;;102.70;2227.20;;;;;;5042272;28;20026;-78
2023/02/15 01:19:51;;;;;;;66.90;31.88;;;102.80;2227.20;;;;;;5048541;28;19911;-77
2023/02/15 01:22:17;;;;;;;65.85;28.80;;;102.80;2227.20;;;;;;5044012;28;20486;-77
2023/02/15 01:24:43;;;;;;;66.75;32.83;;;102.80;2227.20;;;;;;5045425;28;20461;-77
2023/02/15 01:27:09;;;;;;;;;;;102.80;2227.20;;;;;;5048194;28;20071;-77
2023/02/15 01:29:35;;;;;;;59.38;31.67;;;102.80;2227.20;;;;;;5068340;28;19958;-76
2023/02/15 01:32:01;;;;;;;;;;;102.70;2227.20;;;;;;5064279;28;20031;-77
2023/02/15 01:34:26;;;;;;;63.65;33.17;;;102.80;2227.20;;;;;;5044065;28;19906;-76
2023/02/15 01:36:52;;;;;;;;;;;102.80;2227.20;;;;;;5062990;28;20017;-76
2023/02/15 01:39:17;;;;;;;72.30;32.88;;;102.80;2227.20;;;;;;5039824;28;20387;-76
2023/02/15 01:41:43;;;;;;;;;;;102.80;2227.20;;;;;;5062919;28;20493;-76
2023/02/15 01:44:43;;;;;;;58.90;29.33;;;102.80;2227.20;;;;;;5045233;28;20404;-76
2023/02/15 01:47:12;;;;;;;63.25;30.95;;;102.80;2227.20;;;;;;5029495;28;20033;-76
2023/02/15 01:49:40;;;;;;;62.50;31.25;;;102.80;2227.20;;;;;;5065947;28;20086;-76
2023/02/15 01:52:08;;;;;;;65.10;33.08;;;102.80;2227.20;;;;;;5045429;28;20025;-76
2023/02/15 01:54:36;;;;;;;67.82;32.13;;;102.80;2227.20;;;;;;5064385;28;20052;-77
2023/02/15 01:57:09;;;;;;;65.18;33.40;;;102.80;2227.20;;;;;;5039929;28;20473;-77
2023/02/15 01:59:37;;;;;;;60.38;30.15;;;102.90;2227.20;;;;;;5042543;28;20025;-76
2023/02/15 02:02:07;;;;;;;64.63;32.00;;;102.90;2227.20;;;;;;5033869;28;20061;-76
2023/02/15 02:04:47;;;;;;;65.90;31.98;;;103.00;2227.20;;;;;;5041243;28;20086;-77
2023/02/15 02:07:16;;;;;;;62.60;30.67;;;102.90;2227.20;;;;;;5043180;28;22035;-77
2023/02/15 02:09:41;;;;;;;65.63;31.80;;;103.00;2227.20;;;;;;5068482;28;20036;-77
2023/02/15 02:12:08;;;;;;;;;;;102.80;2227.20;;;;;;5040062;28;20025;-76
2023/02/15 02:14:34;;;;;;;62.63;31.33;;;102.80;2227.20;;;;;;5049914;28;19904;-76
2023/02/15 02:16:59;;;;;;;;;;;102.80;2227.20;;;;;;5070120;28;20110;-77
2023/02/15 02:19:40;;;;;;;56.90;29.38;;;102.90;2227.20;;;;;;5042929;28;19940;-76
2023/02/15 02:22:32;;;;;;;60.45;31.15;;;102.90;2227.20;;;;;;5029473;28;20026;-77
2023/02/15 02:25:16;;;;;;;56.00;29.33;;;102.90;2227.20;;;;;;5041029;28;20078;-76
2023/02/15 02:27:57;;;;;;;57.65;29.20;;;102.80;2227.20;;;;;;5062723;28;20037;-77
2023/02/15 02:31:04;;;;;;;60.53;31.05;;;102.80;2227.20;;;;;;5018645;28;20052;-77
2023/02/15 02:33:45;;;;;;;54.93;28.93;;;102.80;2227.20;;;;;;5023680;28;20029;-77
2023/02/15 02:36:42;;;;;;;59.05;30.67;;;102.80;2227.20;;;;;;5038177;28;20258;-78
2023/02/15 02:39:20;;;;;;;43.97;23.30;;;102.80;2227.20;;;;;;5055618;28;20162;-77
2023/02/15 02:42:33;;;;;;;58.83;31.27;;;102.60;2227.20;;;;;;5054193;28;20418;-77
2023/02/15 02:45:05;;;;;;;60.67;29.83;;;102.60;2227.20;;;;;;4970037;28;20034;-77
2023/02/15 02:47:58;;;;;;;61.38;30.13;;;102.70;2227.20;;;;;;4974820;28;20030;-76
2023/02/15 02:50:28;;;;;;;59.95;30.30;;;102.80;2227.20;;;;;;4938242;28;20043;-76
2023/02/15 02:52:55;;;;;;;59.13;31.85;;;102.80;2227.20;;;;;;4955655;28;20033;-77
2023/02/15 02:55:45;;;;;;;64.10;31.00;;;102.80;2227.20;;;;;;4938710;28;20043;-77
2023/02/15 02:58:19;;;;;;;65.00;30.73;;;102.80;2227.20;;;;;;4939555;29;20031;-77
2023/02/15 03:00:52;;;;;;;60.42;28.90;;;102.80;2227.20;;;;;;4933648;28;20031;-77
2023/02/15 03:03:37;;;;;;;56.60;29.98;;;102.80;2227.20;;;;;;4957159;28;20085;-77
2023/02/15 03:06:08;;;;;;;57.53;28.45;;;102.80;2227.20;;;;;;4949078;28;20122;-77
2023/02/15 03:08:40;;;;;;;61.30;30.42;;;102.70;2227.20;;;;;;4957317;28;20497;-77
2023/02/15 03:11:06;;;;;;;63.13;31.88;;;102.70;2227.20;;;;;;4950440;28;20042;-77
2023/02/15 03:13:33;;;;;;;62.55;31.17;;;102.80;2227.20;;;;;;4939741;28;20046;-77
2023/02/15 03:18:52;;;;;;;58.88;29.23;;;102.70;2227.20;;;;;;5010177;28;20071;-77
2023/02/15 03:21:40;;;;;;;59.38;29.38;;;102.50;2227.20;;;;;;5016741;28;20057;-77
2023/02/15 03:24:13;;;;;;;52.92;29.27;;;77.70;2227.20;;;;;;5012770;28;20041;-76
2023/02/15 03:26:41;;;;;;;58.70;31.10;;;77.60;2227.20;;;;;;5022146;28;20075;-77
2023/02/15 03:29:08;;;;;;;59.10;28.75;;;77.60;2227.20;;;;;;5043780;28;20041;-77
2023/02/15 03:31:39;;;;;;;56.75;29.58;;;77.60;2227.20;;;;;;5054276;28;20027;-76
2023/02/15 03:34:10;;;;;;;63.70;32.50;;;77.70;2227.20;;;;;;5054509;28;20040;-77
2023/02/15 03:37:05;;;;;;;59.72;29.17;;;77.70;2227.20;;;;;;5054817;28;20014;-77
2023/02/15 03:39:34;;;;;;;64.53;30.08;;;77.60;2227.20;;;;;;5054443;28;20067;-77
2023/02/15 03:42:17;;;;;;;58.50;30.67;;;77.60;2227.20;;;;;;5054984;28;20033;-77
2023/02/15 03:44:58;;;;;;;61.08;29.83;;;77.70;2227.20;;;;;;5031600;28;20021;-77
2023/02/15 03:47:35;;;;;;;56.15;28.48;;;77.70;2227.20;;;;;;5054384;28;20027;-77
2023/02/15 03:52:59;;;;;;;56.30;28.85;;;77.70;2227.20;;;;;;5044393;28;20410;-77
2023/02/15 03:55:25;;;;;;;57.40;28.73;;;102.40;2227.20;;;;;;5053011;28;20028;-77
2023/02/15 04:03:38;;;;;;;54.65;29.00;;;102.40;2227.20;;;;;;5054839;28;20424;-77
2023/02/15 04:06:04;;;;;;;57.60;29.17;;;102.40;2227.20;;;;;;5054528;28;20033;-77
2023/02/15 04:11:14;;;;;;;58.50;26.70;;;102.50;2227.20;;;;;;5054362;28;20277;-77
2023/02/15 04:13:39;;;;;;;;;;;102.40;2227.20;;;;;;5053159;28;20037;-76
2023/02/15 04:16:05;;;;;;;60.45;28.08;;;77.70;2227.20;;;;;;5052970;28;19912;-77
2023/02/15 04:26:47;;;;;;;62.53;30.25;;;77.50;2227.20;;;;;;5042523;28;20036;-76
2023/02/15 04:29:15;;;;;;;60.13;28.63;;;77.40;2227.20;;;;;;5052516;28;20040;-76
2023/02/15 04:31:42;;;;;;;58.47;28.25;;;77.40;2227.20;;;;;;5053195;28;20013;-76
2023/02/15 04:34:09;;;;;;;56.33;29.17;;;77.40;2227.20;;;;;;5052398;28;20036;-76
2023/02/15 04:36:35;;;;;;;53.47;30.50;;;77.20;2227.20;;;;;;5052664;28;20024;-77
2023/02/15 04:39:00;;;;;;;;;;;77.50;2227.20;;;;;;5052073;28;20037;-77
2023/02/15 04:41:26;;;;;;;51.38;28.60;;;77.60;2227.20;;;;;;5052300;28;19920;-76
2023/02/15 04:43:51;;;;;;;;;;;77.50;2227.20;;;;;;5052822;28;20025;-76
2023/02/15 04:46:17;;;;;;;55.67;28.20;;;77.50;2227.20;;;;;;5053632;28;19905;-76
2023/02/15 04:48:43;;;;;;;;;;;77.60;2227.20;;;;;;5052667;28;20106;-77
2023/02/15 04:51:09;;;;;;;55.95;27.33;;;77.60;2227.20;;;;;;5051875;28;19909;-76
2023/02/15 04:53:35;;;;;;;;;;;77.40;2227.20;;;;;;5052538;28;20021;-76
2023/02/15 04:56:01;;;;;;;58.58;28.17;;;77.50;2227.20;;;;;;5052272;28;20243;-76
2023/02/15 04:58:27;;;;;;;61.05;27.30;;;77.40;2227.20;;;;;;5051626;28;20043;-77
2023/02/15 05:00:56;;;;;;;;;;;77.50;2227.20;;;;;;5052227;28;20112;-77
2023/02/15 05:03:21;;;;;;;61.78;27.00;;;77.60;2227.20;;;;;;5051933;28;20320;-76
2023/02/15 05:05:47;;;;;;;;;;;77.70;2227.20;;;;;;5052387;28;20021;-76
2023/02/15 05:08:13;;;;;;;60.53;28.75;;;77.70;2227.20;;;;;;5051897;28;19966;-76
2023/02/15 05:10:38;;;;;;;;;;;77.60;2227.20;;;;;;5041199;28;20123;-76
2023/02/15 05:13:04;;;;;;;57.83;28.75;;;102.40;2227.20;;;;;;5051732;28;19909;-77
2023/02/15 05:15:30;;;;;;;;;;;102.40;2227.20;;;;;;5047484;28;20029;-77
2023/02/15 05:17:55;;;;;;;60.72;29.38;;;102.40;2227.20;;;;;;5035375;28;19954;-76
2023/02/15 05:20:21;;;;;;;;;;;102.50;2227.20;;;;;;5052309;28;20132;-76
2023/02/15 05:22:47;;;;;;;54.33;29.02;;;102.40;2227.20;;;;;;5051630;28;19909;-76
2023/02/15 05:30:41;;;;;;;55.85;28.00;;;77.70;2227.20;;;;;;5053663;28;20028;-76
2023/02/15 05:33:06;;;;;;;;;;;77.70;2227.20;;;;;;5049088;28;20029;-76
2023/02/15 05:35:33;;;;;;;62.33;28.00;;;77.70;2227.20;;;;;;5045105;28;19905;-77
2023/02/15 05:37:59;;;;;;;56.38;29.02;;;77.70;2227.20;;;;;;5022181;28;20083;-76
2023/02/15 05:40:25;;;;;;;;;;;77.60;2227.20;;;;;;5044683;28;20441;-77
2023/02/15 05:42:50;;;;;;;54.72;28.48;;;77.50;2227.20;;;;;;5052968;28;19916;-77
2023/02/15 05:45:16;;;;;;;;;;;77.40;2227.20;;;;;;5057787;28;20059;-75
2023/02/15 05:47:42;;;;;;;53.20;28.00;;;77.40;2227.20;;;;;;5055987;28;19908;-78
2023/02/15 05:50:08;;;;;;;60.10;29.60;;;77.40;2227.20;;;;;;5055736;28;20112;-77
2023/02/15 05:52:34;;;;;;;81.47;34.40;;;77.30;2227.20;;;;;;5055633;28;20025;-79
2023/02/15 05:55:02;;;;;;;91.10;48.90;;;77.30;2227.20;;;;;;5056512;28;20028;-78
2023/02/15 05:57:27;;;;;;;63.78;31.30;;;77.30;2227.20;;;;;;5055441;28;20492;-77
2023/02/15 05:59:53;;;;;;;;;;;77.20;2227.20;;;;;;5055760;28;20029;-77
2023/02/15 06:02:19;;;;;;;68.88;34.03;;;77.20;2227.20;;;;;;5055437;28;19974;-77
2023/02/15 06:04:44;;;;;;;;;;;77.10;2227.20;;;;;;5055800;28;20044;-78
2023/02/15 06:07:10;;;;;;;94.20;40.83;;;77.20;2227.20;;;;;;5054859;28;19995;-77
2023/02/15 06:09:35;;;;;;;;;;;77.10;2227.20;;;;;;5045428;28;20065;-77
2023/02/15 06:12:01;;;;;;;90.97;43.35;;;77.20;2227.20;;;;;;5055217;28;19913;-78
2023/02/15 06:14:27;;;;;;;;;;;77.20;2227.20;;;;;;5055281;28;20074;-76
2023/02/15 06:16:52;;;;;;;77.70;37.15;;;77.30;2227.20;;;;;;5055450;28;19905;-77
2023/02/15 06:19:18;;;;;;;;;;;77.40;2227.20;;;;;;5055497;28;20039;-77
2023/02/15 06:21:44;;;;;;;70.30;34.78;;;77.40;2227.20;;;;;;5056456;28;20358;-77
2023/02/15 06:24:10;;;;;;;;;;;77.60;2227.20;;;;;;5055422;28;20078;-77
2023/02/15 06:26:35;;;;;;;69.00;35.15;;;77.70;2227.20;;;;;;5056307;28;20295;-77
2023/02/15 06:29:01;;;;;;;;;;;102.50;2227.20;;;;;;5055247;28;20043;-77
2023/02/15 06:31:27;;;;;;;69.55;33.40;;;102.50;2227.20;;;;;;5056054;28;20040;-76
2023/02/15 06:33:52;;;;;;;;;;;102.60;2227.20;;;;;;5056682;28;20033;-78
2023/02/15 06:36:18;;;;;;;59.47;30.25;;;102.50;2227.20;;;;;;5056111;28;19908;-79
2023/02/15 06:38:43;;;;;;;;;;;77.50;2227.20;;;;;;5047363;28;20032;-78
2023/02/15 06:41:09;;;;;;;67.05;32.90;;;77.60;2227.20;;;;;;5034510;28;19921;-77
2023/02/15 06:43:35;;;;;;;;;;;77.70;2227.20;;;;;;5049650;28;20027;-75
2023/02/15 06:46:01;;;;;;;75.97;34.10;;;102.40;2227.20;;;;;;5072795;28;19905;-76
2023/02/15 06:48:26;;;;;;;;;;;102.50;2227.20;;;;;;5050727;28;20033;-78
2023/02/15 06:50:52;;;;;;;71.57;34.47;;;102.70;2227.20;;;;;;5047874;28;20273;-76
2023/02/15 06:53:17;;;;;;;;;;;102.70;2227.20;;;;;;5055163;28;20056;-78
2023/02/15 06:55:43;;;;;;;67.93;30.08;;;102.50;2227.20;;;;;;5042654;28;19905;-76
2023/02/15 06:58:08;;;;;;;;;;;77.70;2227.20;;;;;;5049796;28;20421;-77
2023/02/15 07:00:34;;;;;;;65.30;32.05;;;102.40;2227.20;;;;;;5049069;28;19929;-77
2023/02/15 07:03:01;;;;;;;;;;;77.70;2227.20;;;;;;5041316;28;20047;-77
2023/02/15 07:05:30;;;;;;;52.78;26.95;;;77.70;2227.20;;;;;;5078844;28;20042;-78
2023/02/15 07:08:00;;;;;;;67.28;35.17;;;102.50;2227.20;;;;;;5036031;28;20483;-78
2023/02/15 07:10:26;;;;;;;63.13;33.25;;;102.50;2227.20;;;;;;5055305;28;20032;-79
2023/02/15 07:12:53;;;;;;;73.78;35.88;;;102.70;2227.20;;;;;;5037749;28;20029;-77
2023/02/15 07:15:20;;;;;;;77.38;39.22;;;102.80;2227.20;;;;;;5052382;28;20033;-77
2023/02/15 07:17:46;;;;;;;80.82;40.17;;;103.00;2227.20;;;;;;5045239;28;20035;-81
2023/02/15 07:20:16;;;;;;;76.45;38.05;;;103.00;2227.20;;;;;;5033629;28;20029;-78
2023/02/15 07:22:42;;;;;;;83.18;43.33;;;103.10;2227.20;;;;;;5052017;28;20048;-79
2023/02/15 07:25:10;;;;;;;82.32;41.45;;;103.20;2227.20;;;;;;5042758;28;20378;-79
2023/02/15 07:27:36;;;;;;;80.95;39.40;;;128.00;2252.80;;;;;;5036160;28;20024;-81
2023/02/15 07:30:03;;;;;;;77.55;38.17;;;128.10;2252.80;;;;;;5036810;28;20021;-79
2023/02/15 07:32:30;;;;;;;75.75;39.47;;;128.20;2252.80;;;;;;5037840;28;20503;-80
2023/02/15 07:34:56;;;;;;;80.05;39.97;;;128.20;2252.80;;;;;;5031059;28;20109;-79
2023/02/15 07:37:21;;;;;;;;;;;128.00;2252.80;;;;;;5036295;28;20573;-80
2023/02/15 07:39:47;;;;;;;79.18;38.17;;;128.20;2252.80;;;;;;5037554;28;19915;-77
2023/02/15 07:42:13;;;;;;;;;;;128.30;2252.80;;;;;;5036835;28;20031;-78
2023/02/15 07:44:39;;;;;;;72.20;37.67;;;128.40;2252.80;;;;;;5043938;28;20319;-77
2023/02/15 07:47:04;;;;;;;;;;;128.40;2252.80;;;;;;5043908;28;20048;-77
2023/02/15 07:49:30;;;;;;;67.68;34.17;;;128.20;2252.80;;;;;;5059544;28;20441;-79
2023/02/15 07:51:56;;;;;;;;;;;128.30;2252.80;;;;;;5030941;28;20075;-79
2023/02/15 07:54:21;;;;;;;69.90;33.97;;;128.20;2252.80;;;;;;5039436;28;19959;-78
2023/02/15 07:56:47;;;;;;;;;;;128.20;2252.80;;;;;;5031793;28;20056;-78
2023/02/15 07:59:13;;;;;;;67.18;34.17;;;128.40;2252.80;;;;;;5047405;28;19904;-77
2023/02/15 08:01:39;;;;;;;;;;;128.60;2252.80;;;;;;5042007;28;20036;-76
2023/02/15 08:04:06;;;;;;;68.80;35.53;;;128.60;2252.80;;;;;;5050198;28;19912;-76
2023/02/15 08:06:34;;;;;;;68.57;35.20;;;128.80;2252.80;;;;;;5039987;28;20462;-77
2023/02/15 08:09:03;;;;;;;72.80;36.10;;;128.90;2252.80;;;;;;5044819;28;20041;-75
2023/02/15 08:11:39;;;;;;;181.43;107.00;;;153.60;2252.80;;;;;;5042383;28;20051;-77
2023/02/15 08:14:20;;;;;;;101.60;57.78;;;153.70;2252.80;;;;;;5034750;28;20025;-78
2023/02/15 08:16:59;;;;;;;131.27;65.93;;;153.80;2252.80;;;;;;5037224;28;20029;-77
2023/02/15 08:19:27;;;;;;;72.07;37.58;;;153.80;2252.80;;;;;;5044690;28;20392;-78
2023/02/15 08:21:59;;;;;;;65.20;35.25;;;153.70;2252.80;;;;;;5035693;28;20102;-77
2023/02/15 08:24:30;;;;;;;78.35;35.72;;;153.70;2252.80;;;;;;5035523;28;20037;-77
2023/02/15 08:26:57;;;;;;;65.65;33.45;;;153.70;2252.80;;;;;;5026776;28;20029;-77
2023/02/15 08:29:26;;;;;;;69.55;37.00;;;153.60;2252.80;;;;;;5031228;28;20086;-77
2023/02/15 08:32:04;;;;;;;75.72;32.85;;;153.80;2252.80;;;;;;5045219;28;20114;-78
2023/02/15 08:34:36;;;;;;;77.03;37.95;;;153.80;2252.80;;;;;;5023822;28;20163;-78
2023/02/15 08:37:02;;;;;;;68.82;36.10;;;154.00;2252.80;;;;;;5044057;28;20028;-78
2023/02/15 08:39:28;;;;;;;;;;;154.10;2252.80;;;;;;5030666;28;20033;-80
2023/02/15 08:41:54;;;;;;;73.85;34.17;;;154.30;2252.80;;;;;;5053235;28;20013;-79
2023/02/15 08:44:20;;;;;;;95.72;48.47;;;154.40;2252.80;;;;;;5062079;28;20026;-79
2023/02/15 08:46:46;;;;;;;;;;;154.40;2252.80;;;;;;5055997;28;20024;-79
2023/02/15 08:49:16;;;;;;;64.43;32.40;;;154.40;2252.80;;;;;;5038997;28;20285;-79
2023/02/15 08:51:42;;;;;;;52.28;28.55;;;154.50;2252.80;;;;;;5041956;28;20585;-78
2023/02/15 08:54:10;;;;;;;;;;;154.50;2252.80;;;;;;5040945;28;20504;-80
2023/02/15 08:56:38;;;;;;;60.75;29.15;;;179.20;2252.80;;;;;;5035998;28;19968;-77
2023/02/15 08:59:05;;;;;;;57.65;30.05;;;179.30;2252.80;;;;;;5027695;28;20105;-79
2023/02/15 09:01:33;;;;;;;54.88;29.55;;;179.30;2252.80;;;;;;5036967;28;20029;-80
2023/02/15 09:04:01;;;;;;;51.97;28.50;;;179.40;2252.80;;;;;;5030018;28;20028;-79
2023/02/15 09:06:28;;;;;;;47.55;26.25;;;179.30;2252.80;;;;;;5027041;28;20022;-78
2023/02/15 09:08:54;;;;;;;53.10;28.30;;;179.40;2252.80;;;;;;5066016;28;20040;-77
2023/02/15 09:11:28;;;;;;;54.00;28.33;;;179.50;2252.80;;;;;;5060389;28;20078;-76
2023/02/15 09:13:59;;;;;;;59.40;30.92;;;179.60;2252.80;;;;;;5060885;28;20497;-75
2023/02/15 09:16:27;;;;;;;54.03;30.63;;;179.60;2252.80;;;;;;5041318;28;20132;-77
2023/02/15 09:18:53;;;;;;;57.00;29.75;;;179.70;2252.80;;;;;;5058834;28;20029;-77
2023/02/15 09:21:21;;;;;;;54.17;31.35;;;179.80;2252.80;;;;;;5036442;28;20037;-77
2023/02/15 09:23:50;;;;;;;59.40;30.88;;;180.00;2252.80;;;;;;5044904;28;20033;-79
2023/02/15 09:26:18;;;;;;;56.75;30.58;;;180.10;2252.80;;;;;;5032692;28;20081;-77
2023/02/15 09:28:44;;;;;;;56.90;29.35;;;204.80;2252.80;;;;;;5041285;28;20037;-78
2023/02/15 09:31:19;;;;;;;56.58;29.00;;;205.00;2252.80;;;;;;5041930;28;20039;-77
2023/02/15 09:33:46;;;;;;;60.05;29.30;;;205.10;2252.80;;;;;;5045387;28;20032;-82
2023/02/15 09:36:17;;;;;;;54.53;29.00;;;205.30;2252.80;;;;;;5045921;28;20116;-79
2023/02/15 09:38:43;;;;;;;54.97;29.55;;;205.30;2252.80;;;;;;5046756;28;20031;-79
2023/02/15 09:41:18;;;;;;;56.17;28.48;;;205.40;2252.80;;;;;;5037050;28;20056;-80
2023/02/15 09:44:16;;;;;;;50.67;29.52;;;205.60;2252.80;;;;;;5044014;28;20040;-81
2023/02/15 09:47:11;;;;;;;58.03;29.85;;;230.40;2252.80;;;;;;5023392;28;20039;-80
2023/02/15 09:49:46;;;;;;;52.30;28.42;;;230.50;2252.80;;;;;;4964077;28;20051;-77
2023/02/15 09:52:26;;;;;;;51.20;27.65;;;230.70;2252.80;;;;;;4973502;28;20046;-78
2023/02/15 09:55:03;;;;;;;48.17;27.63;;;230.90;2252.80;;;;;;4938786;28;20498;-78
2023/02/15 09:57:47;;;;;;;47.65;27.05;;;231.10;2252.80;;;;;;4970852;28;20096;-79
2023/02/15 10:00:23;;;;;;;46.58;26.25;;;231.20;2252.80;;;;;;4974375;28;20035;-85
2023/02/15 10:03:16;;;;;;;47.27;27.83;;;256.00;2252.80;;;;;;4950000;28;20086;-77
2023/02/15 10:06:10;;;;;;;45.97;27.45;;;256.30;2252.80;;;;;;4980286;28;20068;-75
2023/02/15 10:08:50;;;;;;;46.70;26.65;;;256.40;2252.80;;;;;;4968565;28;20054;-77
2023/02/15 10:11:39;;;;;;;50.33;27.88;;;256.70;2252.80;;;;;;4980642;28;20038;-78
2023/02/15 10:14:15;;;;;;;47.15;28.15;;;256.80;2252.80;;;;;;4976088;28;20035;-76
2023/02/15 10:17:06;;;;;;;36.50;20.65;;;256.90;2252.80;;;;;;4953820;28;20511;-76
2023/02/15 10:19:49;;;;;;;45.75;27.25;;;281.80;2278.40;;;;;;4935283;28;20127;-76
2023/02/15 10:23:02;;;;;;;47.47;26.55;;;282.00;2278.40;;;;;;4950962;28;20531;-75
2023/02/15 10:25:48;;;;;;;43.60;26.13;;;282.20;2252.80;;;;;;4914078;29;20040;-75
2023/02/15 10:28:20;;;;;;;37.22;23.25;;;282.30;2176.00;;;;;;4959321;28;20046;-74
2023/02/15 10:30:51;;;;;;;38.33;23.48;;;282.20;2201.60;;;;;;4965278;28;20041;-75
2023/02/15 10:33:34;;;;;;;38.97;23.20;;;282.30;2124.80;;;;;;4948748;28;20035;-77
2023/02/15 10:36:47;;;;;;;46.95;25.00;;;282.20;2022.40;;;;;;4958035;28;20046;-77
2023/02/15 10:39:22;;;;;;;74.63;31.85;;;282.40;2022.40;;;;;;4901881;29;20032;-76
2023/02/15 10:42:29;;;;;;;38.70;22.98;;;307.30;1971.20;;;;;;4890031;29;20557;-74
2023/02/15 10:45:13;;;;;;;38.45;23.67;;;307.20;1945.60;;;;;;4889997;29;20036;-75
2023/02/15 10:47:38;;;;;;;33.70;21.85;;;307.70;1945.60;;;;;;4892139;29;20100;-75
2023/02/15 10:50:26;;;;;;;38.10;23.45;;;308.00;1920.00;;;;;;4895497;29;20491;-74
2023/02/15 10:52:54;;;;;;;36.65;22.38;;;308.00;1868.80;;;;;;4888685;29;20025;-75
2023/02/15 10:55:34;;;;;;;34.85;23.17;;;307.80;1894.40;;;;;;4889167;29;20041;-74
2023/02/15 10:58:25;;;;;;;34.15;20.58;;;332.90;1868.80;;;;;;4888268;29;20040;-75
2023/02/15 11:00:51;;;;;;;33.65;19.55;;;332.90;1792.00;;;;;;4928990;28;20524;-74
2023/02/15 11:03:51;;;;;;;28.13;19.17;;;333.10;1792.00;;;;;;4957939;28;20031;-75
2023/02/15 11:06:19;;;;;;;36.58;21.85;;;333.40;1766.40;;;;;;4960447;28;20026;-74
2023/02/15 11:08:59;;;;;;;33.20;20.48;;;333.60;1740.80;;;;;;4965646;28;20126;-75
2023/02/15 11:11:34;;;;;;;35.47;21.77;;;333.40;1715.20;;;;;;4956602;28;20524;-74
2023/02/15 11:14:05;;;;;;;34.15;21.60;;;333.70;1715.20;;;;;;4961664;28;20565;-75
2023/02/15 11:16:39;;;;;;;49.35;26.20;;;358.40;1689.60;;;;;;5045707;28;20052;-74
2023/02/15 11:19:13;;;;;;;35.50;21.98;;;358.70;1664.00;;;;;;5026346;28;20108;-75
2023/02/15 11:21:45;;;;;;;35.38;22.27;;;358.80;1638.40;;;;;;5033295;28;20493;-75
2023/02/15 11:24:20;;;;;;;41.47;24.90;;;358.80;1612.80;;;;;;5048385;28;20028;-75
2023/02/15 11:26:56;;;;;;;43.72;25.15;;;358.90;1638.40;;;;;;5048674;28;20105;-75
2023/02/15 11:29:41;;;;;;;46.17;23.17;;;358.90;1612.80;;;;;;5033456;28;20028;-75
2023/02/15 11:32:27;;;;;;;33.47;21.83;;;358.70;1638.40;;;;;;5028534;28;20108;-74
2023/02/15 11:34:52;;;;;;;32.13;19.90;;;359.00;1612.80;;;;;;5041915;28;20102;-76
2023/02/15 11:37:21;;;;;;;32.85;20.58;;;359.00;1612.80;;;;;;5051388;28;20106;-75
2023/02/15 11:39:51;;;;;;;39.05;20.63;;;358.70;1638.40;;;;;;5058761;28;20009;-75
2023/02/15 11:42:22;;;;;;;33.38;20.35;;;358.70;1638.40;;;;;;5057169;28;20036;-76
2023/02/15 11:45:13;;;;;;;35.72;20.75;;;359.00;1638.40;;;;;;5035253;28;20021;-76
2023/02/15 11:47:38;;;;;;;36.92;19.90;;;359.20;1587.20;;;;;;5025811;28;20053;-76
2023/02/15 11:50:05;;;;;;;34.33;21.30;;;359.20;1587.20;;;;;;5043553;28;20087;-77
2023/02/15 11:52:31;;;;;;;29.00;19.73;;;384.10;1561.60;;;;;;5040047;28;20038;-77
2023/02/15 11:54:57;;;;;;;29.00;18.40;;;384.30;1561.60;;;;;;5059841;28;20032;-76
2023/02/15 11:57:28;;;;;;;28.38;17.30;;;384.30;1536.00;;;;;;5045786;28;20437;-76
2023/02/15 12:00:10;;;;;;;26.80;16.63;;;384.10;1510.40;;;;;;5043671;28;20033;-74
2023/02/15 12:02:38;;;;;;;32.72;18.48;;;384.10;1510.40;;;;;;5054856;28;20170;-74
2023/02/15 12:05:13;;;;;;;25.77;16.95;;;384.20;1536.00;;;;;;5045199;28;20029;-74
2023/02/15 12:07:48;;;;;;;27.35;18.67;;;384.40;1536.00;;;;;;5063512;28;20029;-75
2023/02/15 12:10:25;;;;;;;32.88;22.08;;;384.10;1510.40;;;;;;5027556;28;20037;-74
2023/02/15 12:13:12;;;;;;;26.02;17.02;;;384.00;1536.00;;;;;;5050688;28;20481;-75
2023/02/15 12:15:40;;;;;;;28.38;18.63;;;384.00;1536.00;;;;;;5030013;28;20036;-76
2023/02/15 12:18:21;;;;;;;26.15;17.85;;;359.20;1536.00;;;;;;5049517;28;20108;-74
2023/02/15 12:20:48;;;;;;;25.80;18.23;;;384.00;1510.40;;;;;;5049125;28;20071;-77
2023/02/15 12:23:15;;;;;;;55.90;28.27;;;359.10;1510.40;;;;;;5048161;28;20027;-74
2023/02/15 12:25:43;;;;;;;46.47;26.73;;;359.30;1510.40;;;;;;5054747;28;20112;-71
2023/02/15 12:28:36;;;;;;;27.73;19.17;;;384.00;1536.00;;;;;;5063451;28;20040;-74
2023/02/15 12:31:09;;;;;;;31.48;19.77;;;359.30;1536.00;;;;;;5056826;28;20029;-74
2023/02/15 12:33:40;;;;;;;28.65;17.98;;;359.30;1536.00;;;;;;5031346;28;20018;-75
2023/02/15 12:36:26;;;;;;;35.05;20.15;;;359.20;1536.00;;;;;;5047412;28;20021;-75
2023/02/15 12:39:22;;;;;;;31.00;20.90;;;359.10;1561.60;;;;;;5067207;28;20020;-74
2023/02/15 12:41:57;;;;;;;29.35;19.33;;;359.20;1536.00;;;;;;5057609;28;20094;-70
2023/02/15 12:44:26;;;;;;;31.95;19.35;;;359.20;1536.00;;;;;;5050048;28;20020;-74
2023/02/15 12:47:03;;;;;;;27.95;18.73;;;359.00;1561.60;;;;;;5057894;28;20044;-73
2023/02/15 12:49:37;;;;;;;30.73;20.02;;;359.10;1561.60;;;;;;5063900;28;20032;-73
2023/02/15 12:52:19;;;;;;;32.60;20.55;;;359.20;1561.60;;;;;;5061443;28;20456;-74
2023/02/15 12:54:45;;;;;;;30.05;18.95;;;359.00;1561.60;;;;;;5048756;28;20426;-74
2023/02/15 12:57:22;;;;;;;27.55;17.92;;;358.90;1536.00;;;;;;5042752;28;20040;-74
2023/02/15 12:59:58;;;;;;;35.67;22.45;;;358.80;1587.20;;;;;;5059922;28;20056;-74
2023/02/15 13:02:25;;;;;;;;;;;358.70;1587.20;;;;;;5061648;28;20496;-74
2023/02/15 13:04:52;;;;;;;32.67;20.70;;;358.80;1587.20;;;;;;5055828;28;19904;-73
2023/02/15 13:07:18;;;;;;;30.73;19.00;;;358.70;1612.80;;;;;;5041907;28;20020;-73